Goffs, California
Current Conditions -  °F | °C
As of 8:56 AM on Saturday 25 Oct 2014 (Local Time) from KEED Reporting Station
Scattered Clouds Scattered Clouds  
Wind Chill: 75°   Ceiling: Unl
Heat Index: 75°   Visibility: 10mi
Dew Point: 42°   Wind: 3mph
Humidity: 31%   Direction: 90°E
Pressure: 30.02"   Gusts: NA
Location:  34.6052°N, 115.241°W
Report Text: KEED 251556Z AUTO 09003KT 10SM SCT110 24/06 A3002 RMK AO2 SLP140 T02390056
Loading
Personal Weather Stations






























Interactive Weather Map
Tropical Storm Tracking
New forecast layout! Learn more

10-Day Weather Forecast

Advertisements
Track Severe Weather on mobile